createdAt,value
2018-02-08T00:00:17.599Z,104.00
2018-02-08T00:01:17.501Z,109.10
2018-02-08T00:02:17.383Z,101.20
2018-02-08T00:03:17.276Z,102.90
2018-02-08T00:04:17.165Z,98.40
2018-02-08T00:05:17.056Z,98.50
2018-02-08T00:06:16.942Z,104.20
2018-02-08T00:07:16.839Z,107.50
2018-02-08T00:08:16.720Z,100.50
2018-02-08T00:09:16.624Z,102.40
2018-02-08T00:10:16.504Z,101.90
2018-02-08T00:11:16.397Z,107.40
2018-02-08T00:12:16.288Z,103.30
2018-02-08T00:13:16.168Z,103.80
2018-02-08T00:14:16.065Z,108.70
2018-02-08T00:15:15.954Z,93.50
2018-02-08T00:16:15.849Z,98.40
2018-02-08T00:17:15.736Z,103.00
2018-02-08T00:18:15.628Z,108.70
2018-02-08T00:19:15.513Z,100.60
2018-02-08T00:20:15.411Z,98.40
2018-02-08T00:21:15.291Z,101.60
2018-02-08T00:22:15.188Z,103.70
2018-02-08T00:23:15.076Z,102.00
2018-02-08T00:24:14.968Z,99.20
2018-02-08T00:25:14.857Z,106.20
2018-02-08T00:26:14.753Z,100.50
2018-02-08T00:27:14.637Z,95.30
2018-02-08T00:28:14.533Z,100.80
2018-02-08T00:29:14.413Z,98.60
2018-02-08T00:30:14.315Z,95.60
2018-02-08T00:31:14.202Z,95.20
2018-02-08T00:32:14.094Z,97.50
2018-02-08T00:33:13.979Z,96.40
2018-02-08T00:34:13.877Z,97.90
2018-02-08T00:35:13.765Z,99.50
2018-02-08T00:36:13.656Z,95.90
2018-02-08T00:37:13.536Z,95.80
2018-02-08T00:38:13.438Z,94.50
2018-02-08T00:39:13.325Z,106.60
2018-02-08T00:40:13.206Z,100.70
2018-02-08T00:41:13.108Z,104.30
2018-02-08T00:42:12.989Z,102.20
2018-02-08T00:43:12.879Z,104.10
2018-02-08T00:44:12.776Z,102.60
2018-02-08T00:45:12.662Z,95.50
2018-02-08T00:46:12.850Z,101.20
2018-02-08T00:47:12.446Z,104.70
2018-02-08T00:48:12.326Z,104.30
2018-02-08T00:49:12.224Z,103.70
2018-02-08T00:50:12.109Z,103.90
2018-02-08T00:51:12.008Z,106.00
2018-02-08T00:52:11.892Z,99.70
2018-02-08T00:53:11.785Z,102.10
2018-02-08T00:54:11.670Z,100.50
2018-02-08T00:55:11.569Z,108.90
2018-02-08T00:56:11.448Z,97.40
2018-02-08T00:57:11.352Z,102.60
2018-02-08T00:58:11.238Z,97.70
2018-02-08T00:59:11.116Z,103.20
2018-02-08T01:00:11.013Z,106.20
2018-02-08T01:01:11.193Z,106.50
2018-02-08T01:02:10.790Z,105.40
2018-02-08T01:03:10.679Z,101.60
2018-02-08T01:04:10.577Z,103.40
2018-02-08T01:05:10.461Z,105.50
2018-02-08T01:06:10.358Z,107.70
2018-02-08T01:07:10.252Z,105.50
2018-02-08T01:08:10.138Z,107.00
2018-02-08T01:09:10.017Z,104.20
2018-02-08T01:10:09.915Z,104.90
2018-02-08T01:11:09.815Z,106.90
2018-02-08T01:12:09.702Z,100.10
2018-02-08T01:13:09.587Z,100.00
2018-02-08T01:14:09.485Z,106.00
2018-02-08T01:15:09.360Z,101.80
2018-02-08T01:16:09.252Z,101.60
2018-02-08T01:17:09.143Z,95.60
2018-02-08T01:18:09.028Z,101.00
2018-02-08T01:19:08.927Z,102.80
2018-02-08T01:20:08.812Z,106.60
2018-02-08T01:21:09.060Z,107.40
2018-02-08T01:22:08.593Z,109.60
2018-02-08T01:23:08.487Z,106.80
2018-02-08T01:24:08.378Z,104.80
2018-02-08T01:25:08.267Z,104.00
2018-02-08T01:26:08.151Z,102.90
2018-02-08T01:27:08.050Z,101.20
2018-02-08T01:28:07.932Z,110.00
2018-02-08T01:29:07.820Z,106.90
2018-02-08T01:30:07.716Z,112.50
2018-02-08T01:31:07.607Z,107.70
2018-02-08T01:32:07.495Z,108.40
2018-02-08T01:33:07.375Z,117.70
2018-02-08T01:34:07.272Z,108.40
2018-02-08T01:35:07.168Z,107.90
2018-02-08T01:36:07.056Z,104.10
2018-02-08T01:37:06.945Z,104.50
2018-02-08T01:38:06.841Z,109.80
2018-02-08T01:39:06.720Z,108.10
2018-02-08T01:40:06.607Z,109.00
2018-02-08T01:41:06.848Z,106.90
2018-02-08T01:42:06.388Z,108.60
2018-02-08T01:43:06.284Z,108.70
2018-02-08T01:44:06.167Z,104.80
2018-02-08T01:45:06.067Z,105.20
2018-02-08T01:46:05.953Z,99.40
2018-02-08T01:47:05.843Z,105.80
2018-02-08T01:48:05.736Z,100.60
2018-02-08T01:49:05.624Z,103.50
2018-02-08T01:50:05.512Z,98.70
2018-02-08T01:51:05.398Z,100.80
2018-02-08T01:52:05.289Z,105.00
2018-02-08T01:53:05.179Z,106.90
2018-02-08T01:54:05.076Z,104.10
2018-02-08T01:55:04.953Z,103.10
2018-02-08T01:56:04.853Z,97.30
2018-02-08T01:57:04.733Z,102.70
2018-02-08T01:58:04.631Z,104.20
2018-02-08T01:59:04.517Z,101.80
2018-02-08T02:00:04.410Z,98.40
2018-02-08T02:01:04.303Z,99.30
2018-02-08T02:02:04.195Z,105.90
2018-02-08T02:03:04.079Z,97.30
2018-02-08T02:04:03.965Z,99.00
2018-02-08T02:05:03.859Z,97.10
2018-02-08T02:06:04.043Z,96.90
2018-02-08T02:07:03.643Z,103.00
2018-02-08T02:08:03.521Z,97.90
2018-02-08T02:09:03.412Z,103.10
2018-02-08T02:10:03.307Z,98.70
2018-02-08T02:11:03.187Z,103.90
2018-02-08T02:12:03.089Z,101.30
2018-02-08T02:13:02.969Z,106.90
2018-02-08T02:14:02.866Z,107.80
2018-02-08T02:15:02.754Z,101.20
2018-02-08T02:16:02.646Z,98.20
2018-02-08T02:17:02.536Z,96.40
2018-02-08T02:18:02.423Z,101.60
2018-02-08T02:19:02.315Z,97.00
2018-02-08T02:20:02.202Z,101.40
2018-02-08T02:21:02.095Z,97.50
2018-02-08T02:22:01.974Z,101.60
2018-02-08T02:23:01.877Z,96.30
2018-02-08T02:24:01.757Z,101.80
2018-02-08T02:25:01.657Z,109.40
2018-02-08T02:26:01.545Z,102.70
2018-02-08T02:27:01.423Z,102.80
2018-02-08T02:28:01.321Z,103.30
2018-02-08T02:29:01.203Z,101.30
2018-02-08T02:30:01.101Z,105.60
2018-02-08T02:31:00.986Z,102.10
2018-02-08T02:32:00.879Z,99.70
2018-02-08T02:33:00.767Z,104.10
2018-02-08T02:34:00.653Z,103.60
2018-02-08T02:35:00.550Z,108.40
2018-02-08T02:36:00.440Z,102.30
2018-02-08T02:37:00.328Z,103.60
2018-02-08T02:38:00.210Z,99.00
2018-02-08T02:39:00.111Z,97.30
2018-02-08T02:39:59.990Z,104.50
2018-02-08T02:41:00.186Z,95.00
2018-02-08T02:41:59.778Z,101.30
2018-02-08T02:42:59.656Z,97.70
2018-02-08T02:43:59.601Z,98.90
2018-02-08T02:44:59.436Z,99.20
2018-02-08T02:45:59.338Z,92.60
2018-02-08T02:46:59.226Z,103.40
2018-02-08T02:47:59.120Z,102.00
2018-02-08T02:48:59.000Z,99.20
2018-02-08T02:49:58.888Z,98.10
2018-02-08T02:50:58.786Z,102.60
2018-02-08T02:51:58.667Z,104.90
2018-02-08T02:52:58.564Z,105.20
2018-02-08T02:53:58.447Z,107.30
2018-02-08T02:54:58.341Z,100.10
2018-02-08T02:55:58.230Z,105.60
2018-02-08T02:56:58.113Z,104.50
2018-02-08T02:57:58.015Z,103.40
2018-02-08T02:58:57.907Z,93.30
2018-02-08T02:59:57.790Z,100.30
2018-02-08T03:00:57.925Z,102.60
2018-02-08T03:01:57.571Z,101.60
2018-02-08T03:02:57.470Z,108.40
2018-02-08T03:03:57.351Z,103.20
2018-02-08T03:04:57.232Z,96.40
2018-02-08T03:05:57.120Z,101.40
2018-02-08T03:06:57.022Z,104.20
2018-02-08T03:07:56.903Z,101.30
2018-02-08T03:08:56.800Z,97.70
2018-02-08T03:09:56.687Z,99.20
2018-02-08T03:10:56.580Z,100.30
2018-02-08T03:11:56.467Z,93.90
2018-02-08T03:12:56.344Z,99.60
2018-02-08T03:13:56.238Z,105.80
2018-02-08T03:14:56.134Z,102.10
2018-02-08T03:15:56.022Z,96.40
2018-02-08T03:16:55.912Z,97.70
2018-02-08T03:17:55.811Z,104.60
2018-02-08T03:18:55.688Z,96.10
2018-02-08T03:19:55.577Z,98.30
2018-02-08T03:20:55.468Z,97.10
2018-02-08T03:21:55.352Z,92.10
2018-02-08T03:22:55.258Z,96.60
2018-02-08T03:23:55.130Z,88.60
2018-02-08T03:24:55.032Z,105.40
2018-02-08T03:25:54.916Z,97.90
2018-02-08T03:26:54.796Z,94.90
2018-02-08T03:27:54.700Z,95.90
2018-02-08T03:28:54.580Z,96.70
2018-02-08T03:29:54.482Z,93.50
2018-02-08T03:30:54.369Z,95.10
2018-02-08T03:31:54.260Z,88.80
2018-02-08T03:32:54.146Z,94.40
2018-02-08T03:33:54.032Z,92.10
2018-02-08T03:34:53.923Z,90.10
2018-02-08T03:35:53.814Z,94.90
2018-02-08T03:36:53.707Z,96.30
2018-02-08T03:37:53.585Z,94.70
2018-02-08T03:38:53.485Z,97.20
2018-02-08T03:39:53.369Z,93.90
2018-02-08T03:40:53.258Z,95.50
2018-02-08T03:41:53.155Z,99.60
2018-02-08T03:42:53.032Z,99.10
2018-02-08T03:43:52.932Z,94.30
2018-02-08T03:44:52.815Z,90.50
2018-02-08T03:45:52.702Z,88.80
2018-02-08T03:46:52.598Z,90.60
2018-02-08T03:47:52.482Z,87.90
2018-02-08T03:48:52.378Z,87.90
2018-02-08T03:49:52.264Z,87.60
2018-02-08T03:50:52.161Z,86.60
2018-02-08T03:51:52.042Z,88.20
2018-02-08T03:52:51.926Z,89.70
2018-02-08T03:53:51.819Z,85.50
2018-02-08T03:54:51.709Z,85.20
2018-02-08T03:55:51.851Z,91.90
2018-02-08T03:56:51.494Z,87.30
2018-02-08T03:57:51.376Z,85.70
2018-02-08T03:58:51.266Z,87.60
2018-02-08T03:59:51.154Z,79.70
2018-02-08T04:00:51.051Z,81.00
2018-02-08T04:01:50.929Z,83.20
2018-02-08T04:02:50.834Z,81.00
2018-02-08T04:03:50.716Z,85.70
2018-02-08T04:04:50.605Z,87.40
2018-02-08T04:05:50.498Z,81.60
2018-02-08T04:06:50.378Z,83.50
2018-02-08T04:07:50.281Z,80.40
2018-02-08T04:08:50.175Z,81.70
2018-02-08T04:09:50.055Z,75.70
2018-02-08T04:10:49.943Z,79.10
2018-02-08T04:11:49.822Z,79.70
2018-02-08T04:12:49.727Z,77.20
2018-02-08T04:13:49.612Z,82.30
2018-02-08T04:14:49.499Z,80.40
2018-02-08T04:15:49.390Z,82.30
2018-02-08T04:16:49.270Z,84.60
2018-02-08T04:17:49.168Z,80.20
2018-02-08T04:18:49.054Z,79.30
2018-02-08T04:19:48.945Z,86.50
2018-02-08T04:20:49.084Z,85.60
2018-02-08T04:21:48.730Z,82.60
2018-02-08T04:22:48.622Z,79.80
2018-02-08T04:23:48.502Z,78.10
2018-02-08T04:24:48.397Z,85.40
2018-02-08T04:25:48.279Z,84.00
2018-02-08T04:26:48.176Z,85.40
2018-02-08T04:27:48.059Z,82.70
2018-02-08T04:28:47.947Z,78.30
2018-02-08T04:29:47.845Z,79.00
2018-02-08T04:30:47.724Z,79.90
2018-02-08T04:31:47.622Z,89.60
2018-02-08T04:32:47.508Z,88.40
2018-02-08T04:33:47.399Z,79.90
2018-02-08T04:34:47.286Z,84.90
2018-02-08T04:35:47.170Z,75.10
2018-02-08T04:36:47.087Z,78.10
2018-02-08T04:37:46.962Z,78.90
2018-02-08T04:38:46.848Z,83.50
2018-02-08T04:39:46.735Z,82.40
2018-02-08T04:40:46.629Z,83.20
2018-02-08T04:41:46.513Z,81.90
2018-02-08T04:42:46.399Z,84.10
2018-02-08T04:43:46.294Z,77.00
2018-02-08T04:44:46.179Z,87.00
2018-02-08T04:45:46.067Z,79.00
2018-02-08T04:46:45.955Z,78.20
2018-02-08T04:47:45.849Z,81.10
2018-02-08T04:48:45.741Z,81.70
2018-02-08T04:49:45.626Z,80.00
2018-02-08T04:50:45.514Z,82.30
2018-02-08T04:51:45.407Z,80.40
2018-02-08T04:52:45.290Z,83.20
2018-02-08T04:53:45.189Z,80.80
2018-02-08T04:54:45.067Z,80.90
2018-02-08T04:55:44.963Z,83.80
2018-02-08T04:56:44.844Z,76.30
2018-02-08T04:57:44.735Z,82.10
2018-02-08T04:58:44.629Z,96.00
2018-02-08T04:59:44.518Z,92.70
2018-02-08T05:00:44.404Z,93.80
2018-02-08T05:01:44.296Z,95.90
2018-02-08T05:02:44.183Z,91.30
2018-02-08T05:03:44.080Z,101.50
2018-02-08T05:04:43.963Z,94.00
2018-02-08T05:05:43.852Z,96.00
2018-02-08T05:06:43.751Z,94.90
2018-02-08T05:07:43.629Z,101.00
2018-02-08T05:08:43.513Z,108.40
2018-02-08T05:09:43.407Z,112.50
2018-02-08T05:10:43.295Z,100.00
2018-02-08T05:11:43.186Z,102.70
2018-02-08T05:12:43.079Z,117.20
2018-02-08T05:13:42.963Z,108.70
2018-02-08T05:14:42.852Z,118.90
2018-02-08T05:15:42.737Z,118.50
2018-02-08T05:16:42.672Z,112.00
2018-02-08T05:17:42.515Z,106.60
2018-02-08T05:18:42.405Z,110.40
2018-02-08T05:19:42.311Z,109.10
2018-02-08T05:20:42.186Z,113.90
2018-02-08T05:21:42.071Z,111.70
2018-02-08T05:22:41.967Z,111.70
2018-02-08T05:23:41.850Z,114.60
2018-02-08T05:24:41.742Z,116.20
2018-02-08T05:25:41.632Z,112.30
2018-02-08T05:26:41.519Z,128.60
2018-02-08T05:27:41.411Z,111.80
2018-02-08T05:28:41.308Z,111.90
2018-02-08T05:29:41.191Z,114.40
2018-02-08T05:30:41.073Z,99.40
2018-02-08T05:31:40.968Z,110.60
2018-02-08T05:32:40.857Z,118.70
2018-02-08T05:33:40.739Z,97.70
2018-02-08T05:34:40.629Z,100.40
2018-02-08T05:35:40.771Z,95.70
2018-02-08T05:36:40.407Z,98.00
2018-02-08T05:37:40.309Z,99.20
2018-02-08T05:38:40.189Z,103.90
2018-02-08T05:39:40.075Z,116.30
2018-02-08T05:40:39.968Z,129.10
2018-02-08T05:41:39.850Z,119.80
2018-02-08T05:42:39.741Z,109.60
2018-02-08T05:43:39.635Z,101.10
2018-02-08T05:44:39.519Z,101.90
2018-02-08T05:45:39.424Z,100.70
2018-02-08T05:46:39.301Z,119.30
2018-02-08T05:47:39.185Z,106.00
2018-02-08T05:48:39.075Z,112.10
2018-02-08T05:49:38.962Z,105.10
2018-02-08T05:50:38.860Z,114.10
2018-02-08T05:51:38.741Z,97.60
2018-02-08T05:52:38.630Z,107.80
2018-02-08T05:53:38.527Z,103.70
2018-02-08T05:54:38.406Z,99.70
2018-02-08T05:55:38.293Z,127.90
2018-02-08T05:56:38.192Z,123.20
2018-02-08T05:57:38.069Z,115.80
2018-02-08T05:58:37.960Z,105.00
2018-02-08T05:59:37.858Z,104.40
2018-02-08T06:00:38.043Z,107.60
2018-02-08T06:01:37.640Z,105.10
2018-02-08T06:02:37.522Z,106.70
2018-02-08T06:03:37.409Z,120.90
2018-02-08T06:04:37.307Z,102.30
2018-02-08T06:05:37.184Z,107.00
2018-02-08T06:06:37.074Z,109.50
2018-02-08T06:07:36.966Z,109.80
2018-02-08T06:08:36.852Z,117.10
2018-02-08T06:09:36.741Z,109.00
2018-02-08T06:10:36.631Z,114.40
2018-02-08T06:11:36.515Z,115.40
2018-02-08T06:12:36.414Z,113.30
2018-02-08T06:13:36.292Z,110.80
2018-02-08T06:14:36.180Z,116.70
2018-02-08T06:15:36.073Z,104.10
2018-02-08T06:16:35.960Z,107.80
2018-02-08T06:17:35.849Z,106.40
2018-02-08T06:18:35.738Z,106.70
2018-02-08T06:19:35.635Z,105.60
2018-02-08T06:20:35.534Z,112.30
2018-02-08T06:21:35.404Z,104.60
2018-02-08T06:22:35.294Z,103.30
2018-02-08T06:23:35.188Z,105.50
2018-02-08T06:24:35.077Z,118.80
2018-02-08T06:25:34.956Z,106.80
2018-02-08T06:26:34.854Z,102.80
2018-02-08T06:27:34.743Z,98.40
2018-02-08T06:28:34.619Z,97.90
2018-02-08T06:29:34.531Z,96.20
2018-02-08T06:30:34.457Z,100.20
2018-02-08T06:31:34.297Z,103.60
2018-02-08T06:32:34.184Z,100.90
2018-02-08T06:33:34.070Z,98.30
2018-02-08T06:34:33.966Z,93.30
2018-02-08T06:35:33.847Z,95.20
2018-02-08T06:36:33.731Z,95.30
2018-02-08T06:37:33.630Z,91.00
2018-02-08T06:38:33.512Z,94.70
2018-02-08T06:39:33.396Z,90.00
2018-02-08T06:40:33.300Z,91.80
2018-02-08T06:41:33.181Z,100.80
2018-02-08T06:42:33.075Z,101.20
2018-02-08T06:43:32.958Z,100.20
2018-02-08T06:44:32.838Z,96.50
2018-02-08T06:45:32.735Z,101.50
2018-02-08T06:46:32.626Z,98.20
2018-02-08T06:47:32.508Z,94.20
2018-02-08T06:48:32.409Z,109.60
2018-02-08T06:49:32.295Z,121.00
2018-02-08T06:50:32.174Z,154.10
2018-02-08T06:51:32.085Z,118.60
2018-02-08T06:52:31.951Z,108.30
2018-02-08T06:53:31.836Z,116.70
2018-02-08T06:54:31.741Z,97.70
2018-02-08T06:55:31.621Z,100.70
2018-02-08T06:56:31.504Z,98.40
2018-02-08T06:57:31.399Z,99.30
2018-02-08T06:58:31.283Z,97.30
2018-02-08T06:59:31.184Z,101.80
2018-02-08T07:00:31.065Z,105.50
2018-02-08T07:01:30.948Z,94.10
2018-02-08T07:02:30.852Z,101.20
2018-02-08T07:03:30.731Z,106.00
2018-02-08T07:04:30.612Z,103.10
2018-02-08T07:05:30.510Z,103.90
2018-02-08T07:06:30.396Z,97.60
2018-02-08T07:07:30.275Z,98.50
2018-02-08T07:08:30.180Z,97.70
2018-02-08T07:09:30.064Z,108.40
2018-02-08T07:10:29.944Z,100.20
2018-02-08T07:11:29.843Z,104.70
2018-02-08T07:12:29.726Z,109.40
2018-02-08T07:13:29.618Z,101.70
2018-02-08T07:14:29.507Z,100.80
2018-02-08T07:15:29.386Z,104.30
2018-02-08T07:16:29.290Z,95.90
2018-02-08T07:17:29.176Z,86.20
2018-02-08T07:18:29.051Z,118.00
2018-02-08T07:19:28.952Z,117.50
2018-02-08T07:20:29.085Z,108.40
2018-02-08T07:21:28.716Z,124.90
2018-02-08T07:22:28.620Z,111.50
2018-02-08T07:23:28.500Z,104.20
2018-02-08T07:24:28.387Z,104.50
2018-02-08T07:25:28.283Z,97.20
2018-02-08T07:26:28.167Z,101.50
2018-02-08T07:27:28.070Z,96.20
2018-02-08T07:28:27.942Z,94.50
2018-02-08T07:29:27.827Z,98.70
2018-02-08T07:30:27.727Z,93.70
2018-02-08T07:31:27.611Z,104.60
2018-02-08T07:32:27.502Z,96.70
2018-02-08T07:33:27.395Z,102.40
2018-02-08T07:34:27.274Z,97.40
2018-02-08T07:35:27.176Z,94.30
2018-02-08T07:36:27.057Z,103.50
2018-02-08T07:37:26.940Z,119.40
2018-02-08T07:38:26.840Z,114.00
2018-02-08T07:39:26.743Z,117.10
2018-02-08T07:40:26.608Z,105.80
2018-02-08T07:41:26.504Z,96.30
2018-02-08T07:42:26.390Z,95.50
2018-02-08T07:43:26.287Z,96.10
2018-02-08T07:44:26.167Z,103.40
2018-02-08T07:45:26.056Z,99.70
2018-02-08T07:46:25.951Z,110.30
2018-02-08T07:47:25.833Z,105.90
2018-02-08T07:48:25.736Z,98.10
2018-02-08T07:49:25.614Z,97.50
2018-02-08T07:50:25.500Z,108.50
2018-02-08T07:51:25.400Z,128.20
2018-02-08T07:52:25.282Z,120.70
2018-02-08T07:53:25.161Z,108.80
2018-02-08T07:54:25.059Z,99.00
2018-02-08T07:55:24.943Z,105.00
2018-02-08T07:56:24.843Z,108.80
2018-02-08T07:57:24.727Z,109.30
2018-02-08T07:58:24.621Z,100.70
2018-02-08T07:59:24.510Z,105.90
2018-02-08T08:00:24.398Z,102.60
2018-02-08T08:01:24.299Z,105.30
2018-02-08T08:02:24.171Z,94.40
2018-02-08T08:03:24.066Z,96.90
2018-02-08T08:04:23.956Z,95.10
2018-02-08T08:05:23.838Z,110.80
2018-02-08T08:06:23.732Z,107.80
2018-02-08T08:07:23.616Z,103.60
2018-02-08T08:08:23.514Z,110.80
2018-02-08T08:09:23.394Z,113.70
2018-02-08T08:10:23.299Z,102.90
2018-02-08T08:11:23.177Z,91.10
2018-02-08T08:12:23.066Z,101.80
2018-02-08T08:13:22.963Z,95.90
2018-02-08T08:14:22.843Z,97.90
2018-02-08T08:15:22.743Z,99.00
2018-02-08T08:16:22.626Z,112.00
2018-02-08T08:17:22.509Z,95.40
2018-02-08T08:18:22.405Z,102.40
2018-02-08T08:19:22.287Z,101.20
2018-02-08T08:20:22.189Z,93.70
2018-02-08T08:21:22.077Z,91.90
2018-02-08T08:22:21.964Z,101.20
2018-02-08T08:23:21.858Z,95.70
2018-02-08T08:24:21.736Z,104.00
2018-02-08T08:25:21.630Z,99.70
2018-02-08T08:26:21.519Z,118.70
2018-02-08T08:27:21.409Z,94.00
2018-02-08T08:28:21.303Z,95.90
2018-02-08T08:29:21.194Z,96.50
2018-02-08T08:30:21.077Z,93.40
2018-02-08T08:31:20.977Z,95.00
2018-02-08T08:32:20.856Z,96.50
2018-02-08T08:33:20.756Z,89.00
2018-02-08T08:34:20.647Z,93.90
2018-02-08T08:35:20.536Z,105.30
2018-02-08T08:36:20.426Z,91.60
2018-02-08T08:37:20.317Z,98.30
2018-02-08T08:38:20.197Z,93.40
2018-02-08T08:39:20.104Z,97.00
2018-02-08T08:40:19.981Z,94.20
2018-02-08T08:41:19.878Z,92.20
2018-02-08T08:42:19.764Z,102.40
2018-02-08T08:43:19.660Z,95.00
2018-02-08T08:44:19.550Z,92.90
2018-02-08T08:45:19.431Z,89.90
2018-02-08T08:46:19.323Z,92.20
2018-02-08T08:47:19.216Z,85.00
2018-02-08T08:48:19.105Z,94.90
2018-02-08T08:49:18.988Z,91.40
2018-02-08T08:50:18.890Z,90.90
2018-02-08T08:51:18.771Z,94.40
2018-02-08T08:52:18.682Z,94.70
2018-02-08T08:53:18.566Z,93.10
2018-02-08T08:54:18.446Z,92.10
2018-02-08T08:55:18.349Z,91.00
2018-02-08T08:56:18.231Z,87.10
2018-02-08T08:57:18.141Z,84.10
2018-02-08T08:58:18.012Z,91.40
2018-02-08T08:59:17.910Z,83.40
2018-02-08T09:00:17.796Z,93.10
2018-02-08T09:01:17.687Z,83.60
2018-02-08T09:02:17.569Z,92.90
2018-02-08T09:03:17.473Z,91.20
2018-02-08T09:04:17.350Z,86.20
2018-02-08T09:05:17.249Z,88.80
2018-02-08T09:06:17.135Z,94.80
2018-02-08T09:07:17.032Z,90.10
2018-02-08T09:08:16.919Z,83.10
2018-02-08T09:09:16.817Z,87.00
2018-02-08T09:10:16.707Z,89.80
2018-02-08T09:11:16.593Z,87.00
2018-02-08T09:12:16.491Z,88.90
2018-02-08T09:13:16.377Z,82.60
2018-02-08T09:14:16.269Z,91.80
2018-02-08T09:15:16.159Z,87.20
2018-02-08T09:16:16.046Z,85.10
2018-02-08T09:17:15.937Z,86.50
2018-02-08T09:18:15.834Z,86.90
2018-02-08T09:19:15.727Z,80.30
2018-02-08T09:20:15.618Z,87.70
2018-02-08T09:21:15.512Z,87.00
2018-02-08T09:22:15.392Z,83.20
2018-02-08T09:23:15.292Z,83.40
2018-02-08T09:24:15.175Z,87.30
2018-02-08T09:25:15.067Z,88.70
2018-02-08T09:26:14.967Z,77.50
2018-02-08T09:27:14.851Z,94.40
2018-02-08T09:28:14.748Z,87.90
2018-02-08T09:29:14.632Z,73.00
2018-02-08T09:30:14.524Z,72.40
2018-02-08T09:31:14.428Z,67.70
2018-02-08T09:32:14.312Z,72.50
2018-02-08T09:33:14.203Z,70.60
2018-02-08T09:34:14.094Z,66.40
2018-02-08T09:35:13.990Z,70.40
2018-02-08T09:36:13.872Z,70.20
2018-02-08T09:37:13.769Z,67.40
2018-02-08T09:38:13.677Z,67.20
2018-02-08T09:39:13.556Z,67.40
2018-02-08T09:40:13.447Z,67.70
2018-02-08T09:41:13.329Z,67.00
2018-02-08T09:42:13.231Z,72.50
2018-02-08T09:43:13.121Z,65.90
2018-02-08T09:44:13.012Z,72.80
2018-02-08T09:45:12.907Z,67.60
2018-02-08T09:46:12.787Z,68.00
2018-02-08T09:47:12.684Z,76.20
2018-02-08T09:48:12.577Z,64.20
2018-02-08T09:49:12.465Z,74.60
2018-02-08T09:50:12.368Z,72.20
2018-02-08T09:51:12.245Z,64.90
2018-02-08T09:52:12.158Z,63.50
2018-02-08T09:53:12.042Z,70.90
2018-02-08T09:54:11.922Z,70.50
2018-02-08T09:55:11.824Z,70.10
2018-02-08T09:56:11.702Z,68.90
2018-02-08T09:57:11.611Z,71.00
2018-02-08T09:58:11.499Z,65.80
2018-02-08T09:59:11.435Z,71.60
2018-02-08T10:00:11.279Z,72.10
2018-02-08T10:01:11.177Z,66.60
2018-02-08T10:02:11.056Z,64.30
2018-02-08T10:03:10.962Z,67.90
2018-02-08T10:04:10.841Z,62.20
2018-02-08T10:05:10.737Z,64.80
2018-02-08T10:06:10.636Z,67.80
2018-02-08T10:07:10.519Z,66.30
2018-02-08T10:08:10.420Z,63.00
2018-02-08T10:09:10.314Z,62.00
2018-02-08T10:10:10.192Z,66.40
2018-02-08T10:11:10.097Z,65.70
2018-02-08T10:12:09.977Z,68.70
2018-02-08T10:13:09.875Z,68.80
2018-02-08T10:14:09.772Z,67.60
2018-02-08T10:15:09.666Z,64.70
2018-02-08T10:16:09.551Z,65.40
2018-02-08T10:17:09.447Z,66.60
2018-02-08T10:18:09.346Z,64.90
2018-02-08T10:19:09.234Z,59.20
2018-02-08T10:20:09.123Z,66.00
2018-02-08T10:21:09.007Z,70.20
2018-02-08T10:22:08.911Z,66.30
2018-02-08T10:23:08.799Z,62.70
2018-02-08T10:24:08.690Z,58.50
2018-02-08T10:25:08.587Z,68.10
2018-02-08T10:26:08.482Z,64.30
2018-02-08T10:27:08.366Z,68.20
2018-02-08T10:28:08.261Z,65.20
2018-02-08T10:29:08.160Z,66.20
2018-02-08T10:30:08.049Z,67.30
2018-02-08T10:31:07.936Z,67.20
2018-02-08T10:32:07.840Z,59.30
2018-02-08T10:33:07.722Z,59.90
2018-02-08T10:34:07.613Z,57.90
2018-02-08T10:35:07.513Z,58.50
2018-02-08T10:36:07.393Z,63.10
2018-02-08T10:37:07.289Z,58.70
2018-02-08T10:38:07.195Z,59.50
2018-02-08T10:39:07.073Z,61.10
2018-02-08T10:40:06.975Z,59.90
2018-02-08T10:41:06.873Z,57.10
2018-02-08T10:42:06.749Z,58.50
2018-02-08T10:43:06.652Z,58.70
2018-02-08T10:44:06.547Z,63.20
2018-02-08T10:45:06.430Z,53.10
2018-02-08T10:46:06.326Z,49.00
2018-02-08T10:47:06.225Z,51.40
2018-02-08T10:48:06.109Z,51.60
2018-02-08T10:49:06.004Z,49.80
2018-02-08T10:50:05.899Z,48.90
2018-02-08T10:51:05.799Z,47.90
2018-02-08T10:52:05.679Z,33.50
2018-02-08T10:53:05.578Z,39.70
2018-02-08T10:54:05.477Z,35.80
2018-02-08T10:55:05.355Z,36.90
2018-02-08T10:56:05.259Z,38.00
2018-02-08T10:57:05.159Z,38.40
2018-02-08T10:58:05.044Z,36.10
2018-02-08T10:59:04.937Z,38.10
2018-02-08T11:00:04.828Z,40.30
2018-02-08T11:01:04.725Z,42.10
2018-02-08T11:02:04.612Z,41.50
2018-02-08T11:03:04.504Z,38.50
2018-02-08T11:04:04.407Z,39.40
2018-02-08T11:05:04.292Z,38.90
2018-02-08T11:06:04.183Z,38.50
2018-02-08T11:07:04.083Z,36.90
2018-02-08T11:08:03.968Z,34.70
2018-02-08T11:09:03.864Z,38.20
2018-02-08T11:10:03.760Z,38.90
2018-02-08T11:11:03.655Z,36.10
2018-02-08T11:12:03.541Z,36.40
2018-02-08T11:13:03.440Z,33.80
2018-02-08T11:14:03.334Z,38.00
2018-02-08T11:15:03.236Z,37.20
2018-02-08T11:16:03.109Z,39.00
2018-02-08T11:17:03.006Z,33.20
2018-02-08T11:18:02.913Z,35.10
2018-02-08T11:19:02.792Z,36.50
2018-02-08T11:20:02.684Z,33.50
2018-02-08T11:21:02.582Z,35.50
2018-02-08T11:22:02.474Z,35.40
2018-02-08T11:23:02.376Z,36.20
2018-02-08T11:24:02.265Z,37.90
2018-02-08T11:25:02.163Z,38.00
2018-02-08T11:26:02.042Z,32.30
2018-02-08T11:27:01.943Z,35.30
2018-02-08T11:28:01.833Z,35.10
2018-02-08T11:29:01.717Z,33.80
2018-02-08T11:30:01.618Z,39.00
2018-02-08T11:31:01.513Z,36.10
2018-02-08T11:32:01.417Z,35.40
2018-02-08T11:33:01.298Z,34.60
2018-02-08T11:34:01.190Z,35.10
2018-02-08T11:35:01.092Z,36.70
2018-02-08T11:36:00.972Z,37.90
2018-02-08T11:37:00.868Z,35.30
2018-02-08T11:38:00.768Z,38.20
2018-02-08T11:39:00.663Z,39.80
2018-02-08T11:40:00.549Z,38.30
2018-02-08T11:41:00.444Z,37.70
2018-02-08T11:42:00.336Z,40.50
2018-02-08T11:43:00.239Z,40.20
2018-02-08T11:44:00.123Z,38.40
2018-02-08T11:45:00.025Z,39.30
2018-02-08T11:45:59.917Z,38.10
2018-02-08T11:46:59.796Z,39.70
2018-02-08T11:47:59.700Z,40.10
2018-02-08T11:48:59.595Z,40.00
2018-02-08T11:49:59.486Z,39.10
2018-02-08T11:50:59.372Z,38.50
2018-02-08T11:51:59.271Z,36.60
2018-02-08T11:52:59.165Z,38.40
2018-02-08T11:53:59.068Z,38.80
2018-02-08T11:54:58.949Z,38.70
2018-02-08T11:55:58.845Z,39.50
2018-02-08T11:56:58.743Z,36.80
2018-02-08T11:57:58.622Z,38.00
2018-02-08T11:58:58.527Z,40.10
2018-02-08T11:59:58.420Z,40.40
2018-02-08T12:00:58.310Z,38.60
2018-02-08T12:01:58.198Z,37.20
2018-02-08T12:02:58.093Z,39.00
2018-02-08T12:03:57.994Z,42.20
2018-02-08T12:04:57.881Z,36.20
2018-02-08T12:05:57.770Z,40.40
2018-02-08T12:06:57.671Z,37.90
2018-02-08T12:07:57.565Z,39.70
2018-02-08T12:08:57.454Z,39.90
2018-02-08T12:09:57.348Z,38.80
2018-02-08T12:10:57.240Z,43.50
2018-02-08T12:11:57.141Z,40.50
2018-02-08T12:12:57.028Z,36.70
2018-02-08T12:13:56.918Z,37.50
2018-02-08T12:14:56.820Z,37.20
2018-02-08T12:15:56.713Z,41.10
2018-02-08T12:16:56.598Z,40.00
2018-02-08T12:17:56.499Z,39.10
2018-02-08T12:18:56.389Z,41.60
2018-02-08T12:19:56.290Z,42.00
2018-02-08T12:20:56.177Z,43.90
2018-02-08T12:21:56.071Z,35.10
2018-02-08T12:22:55.976Z,37.80
2018-02-08T12:23:55.862Z,39.80
2018-02-08T12:24:55.746Z,39.30
2018-02-08T12:25:55.648Z,41.60
2018-02-08T12:26:55.536Z,41.80
2018-02-08T12:27:55.443Z,37.20
2018-02-08T12:28:55.324Z,39.20
2018-02-08T12:29:55.220Z,39.60
2018-02-08T12:30:55.118Z,38.30
2018-02-08T12:31:55.009Z,38.60
2018-02-08T12:32:54.895Z,37.00
2018-02-08T12:33:54.800Z,41.40
2018-02-08T12:34:54.686Z,40.00
2018-02-08T12:35:54.575Z,40.80
2018-02-08T12:36:54.483Z,37.80
2018-02-08T12:37:54.361Z,36.70
2018-02-08T12:38:54.263Z,37.60
2018-02-08T12:39:54.150Z,39.50
2018-02-08T12:40:54.044Z,36.20
2018-02-08T12:41:53.941Z,41.10